Time;durP1;ratioP1;P1;durP2;ratioP2;P2;SDS_P1;SDS_P2;PMS_P1;PMS_P2;Temp;Humidity;BMP_temperature;BMP_pressure;BME280_temperature;BME280_humidity;BME280_pressure;Samples;Min_cycle;Max_cycle;Signal;HPM_P1;HPM_P2
2022/04/29 00:00:56;;;;;;;12.38;5.15;;;6.40;99.90;;;;;;5096136;28;20052;-61
2022/04/29 00:03:22;;;;;;;8.57;4.40;;;6.40;99.90;;;;;;5079778;28;20040;-61
2022/04/29 00:05:48;;;;;;;7.75;3.85;;;6.40;99.90;;;;;;5097286;28;20140;-61
2022/04/29 00:08:15;;;;;;;12.98;4.82;;;6.40;99.90;;;;;;5098448;28;20097;-61
2022/04/29 00:10:42;;;;;;;13.52;4.50;;;6.40;99.90;;;;;;5095907;28;20043;-60
2022/04/29 00:13:10;;;;;;;12.90;5.18;;;6.40;99.90;;;;;;5094299;28;20122;-61
2022/04/29 00:15:36;;;;;;;14.77;5.10;;;6.30;99.90;;;;;;5077663;28;20328;-61
2022/04/29 00:18:03;;;;;;;10.25;4.32;;;6.30;99.90;;;;;;5095477;28;20040;-61
2022/04/29 00:20:29;;;;;;;9.77;4.72;;;6.30;99.90;;;;;;5069669;28;20196;-61
2022/04/29 00:22:55;;;;;;;11.55;4.85;;;6.30;99.90;;;;;;5094613;28;20149;-60
2022/04/29 00:25:21;;;;;;;13.75;4.88;;;6.30;99.90;;;;;;5092977;28;20054;-59
2022/04/29 00:27:47;;;;;;;8.32;3.72;;;6.30;99.90;;;;;;5092339;28;20176;-60
2022/04/29 00:30:14;;;;;;;12.35;4.63;;;6.30;99.90;;;;;;5093121;28;20074;-60
2022/04/29 00:32:41;;;;;;;8.43;4.03;;;6.30;99.90;;;;;;5093377;28;20035;-60
2022/04/29 00:35:08;;;;;;;9.40;4.03;;;6.30;99.90;;;;;;5096268;28;20052;-61
2022/04/29 00:37:52;;;;;;;10.43;4.50;;;6.30;99.90;;;;;;5075285;28;20060;-61
2022/04/29 00:40:21;;;;;;;9.85;4.35;;;6.30;99.90;;;;;;5096186;28;20048;-60
2022/04/29 00:42:48;;;;;;;10.10;4.43;;;6.20;99.90;;;;;;5092077;28;20127;-61
2022/04/29 00:45:18;;;;;;;12.88;4.93;;;6.30;99.90;;;;;;5092640;28;20043;-61
2022/04/29 00:47:45;;;;;;;12.07;5.07;;;6.20;99.90;;;;;;5095142;28;20098;-60
2022/04/29 00:50:14;;;;;;;15.70;4.82;;;6.20;99.90;;;;;;5094311;28;20043;-58
2022/04/29 00:52:43;;;;;;;13.30;4.93;;;6.20;99.90;;;;;;5095629;28;20039;-61
2022/04/29 00:55:10;;;;;;;12.35;5.18;;;6.20;99.90;;;;;;5093736;28;20058;-60
2022/04/29 00:58:08;;;;;;;11.90;4.85;;;6.20;99.90;;;;;;5094576;28;20440;-60
2022/04/29 01:00:36;;;;;;;11.20;5.18;;;6.20;99.90;;;;;;5078955;28;20494;-61
2022/04/29 01:03:04;;;;;;;10.18;5.20;;;6.10;99.90;;;;;;5096897;28;20549;-61
2022/04/29 01:05:31;;;;;;;13.50;5.85;;;6.10;99.90;;;;;;5094546;28;20086;-61
2022/04/29 01:07:57;;;;;;;12.30;5.68;;;6.00;99.90;;;;;;5094450;28;20126;-60
2022/04/29 01:10:24;;;;;;;14.02;6.03;;;6.10;99.90;;;;;;5093117;28;20058;-59
2022/04/29 01:12:55;;;;;;;13.73;6.45;;;6.00;99.90;;;;;;5083878;28;20040;-59
2022/04/29 01:15:21;;;;;;;10.40;4.80;;;6.00;99.90;;;;;;5075889;28;20054;-61
2022/04/29 01:17:50;;;;;;;13.30;5.95;;;6.00;99.90;;;;;;5077287;28;20046;-60
2022/04/29 01:20:20;;;;;;;11.70;6.45;;;6.00;99.90;;;;;;5095199;28;20052;-61
2022/04/29 01:22:46;;;;;;;10.95;5.88;;;6.00;99.90;;;;;;5093434;28;20494;-61
2022/04/29 01:25:13;;;;;;;9.70;6.00;;;6.00;99.90;;;;;;5095592;28;20488;-61
2022/04/29 01:27:39;;;;;;;13.55;5.90;;;6.00;99.90;;;;;;5093521;28;20418;-61
2022/04/29 01:30:11;;;;;;;13.90;6.00;;;6.00;99.90;;;;;;5091905;28;20052;-60
2022/04/29 01:32:40;;;;;;;9.95;5.93;;;6.00;99.90;;;;;;5085278;28;20499;-59
2022/04/29 01:35:08;;;;;;;10.52;6.10;;;5.90;99.90;;;;;;5096613;28;20040;-61
2022/04/29 01:37:34;;;;;;;9.68;5.72;;;5.90;99.90;;;;;;5085550;28;20405;-61
2022/04/29 01:40:01;;;;;;;9.13;5.47;;;5.90;99.90;;;;;;5095182;28;20110;-61
2022/04/29 01:42:27;;;;;;;11.02;6.50;;;5.90;99.90;;;;;;5094383;28;20044;-60
2022/04/29 01:44:54;;;;;;;10.05;5.57;;;5.90;99.90;;;;;;5094425;28;20413;-60
2022/04/29 01:47:20;;;;;;;14.52;6.15;;;5.90;99.90;;;;;;5095826;28;20040;-58
2022/04/29 01:49:46;;;;;;;8.95;5.32;;;5.90;99.90;;;;;;5092120;28;20050;-60
2022/04/29 01:52:12;;;;;;;14.50;6.40;;;5.90;99.90;;;;;;5094223;28;20233;-61
2022/04/29 01:54:38;;;;;;;10.68;5.88;;;5.90;99.90;;;;;;5092905;28;20130;-61
2022/04/29 01:57:06;;;;;;;7.68;5.85;;;5.90;99.90;;;;;;5094567;28;20491;-61
2022/04/29 01:59:33;;;;;;;9.73;6.07;;;5.90;99.90;;;;;;5084965;28;20044;-61
2022/04/29 02:01:59;;;;;;;10.57;6.13;;;5.90;99.90;;;;;;5093957;28;20051;-61
2022/04/29 02:04:26;;;;;;;14.95;6.65;;;5.90;99.90;;;;;;5083240;28;20132;-60
2022/04/29 02:06:51;;;;;;;10.60;6.30;;;5.80;99.90;;;;;;5095359;28;20051;-60
2022/04/29 02:09:18;;;;;;;12.07;6.90;;;5.80;99.90;;;;;;5095720;28;20169;-61
2022/04/29 02:12:03;;;;;;;12.00;6.45;;;5.80;99.90;;;;;;5093784;28;20047;-61
2022/04/29 02:14:30;;;;;;;14.20;6.43;;;5.80;99.90;;;;;;5095156;28;20052;-61
2022/04/29 02:16:57;;;;;;;12.50;6.70;;;5.80;99.90;;;;;;5093066;28;20051;-61
2022/04/29 02:19:25;;;;;;;13.38;6.68;;;5.80;99.90;;;;;;5094431;28;20118;-61
2022/04/29 02:21:51;;;;;;;14.18;6.68;;;5.70;99.90;;;;;;5095213;28;20044;-60
2022/04/29 02:24:18;;;;;;;12.52;6.68;;;5.70;99.90;;;;;;5083647;28;20105;-60
2022/04/29 02:26:44;;;;;;;9.48;6.38;;;5.70;99.90;;;;;;5075977;28;20055;-60
2022/04/29 02:29:10;;;;;;;12.23;6.80;;;5.60;99.90;;;;;;5094541;28;20059;-61
2022/04/29 02:31:36;;;;;;;10.35;6.18;;;5.60;99.90;;;;;;5083338;28;20039;-60
2022/04/29 02:34:02;;;;;;;12.73;6.80;;;5.60;99.90;;;;;;5092167;28;20139;-61
2022/04/29 02:36:28;;;;;;;14.18;6.63;;;5.60;99.90;;;;;;5095799;28;20473;-61
2022/04/29 02:38:54;;;;;;;10.98;6.57;;;5.60;99.90;;;;;;5093773;28;20043;-61
2022/04/29 02:41:20;;;;;;;11.95;6.35;;;5.60;99.90;;;;;;5075453;28;20409;-61
2022/04/29 02:43:46;;;;;;;7.82;5.53;;;5.60;99.90;;;;;;5093356;28;20038;-60
2022/04/29 02:46:12;;;;;;;9.30;5.55;;;5.60;99.90;;;;;;5095081;28;20122;-59
2022/04/29 02:48:38;;;;;;;9.48;5.95;;;5.50;99.90;;;;;;5091612;28;20035;-61
2022/04/29 02:51:06;;;;;;;15.55;5.70;;;5.60;99.90;;;;;;5092633;28;20142;-60
2022/04/29 02:53:32;;;;;;;14.48;6.57;;;5.50;99.90;;;;;;5093264;28;20040;-59
2022/04/29 02:55:58;;;;;;;7.70;6.00;;;5.50;99.90;;;;;;5094798;28;20048;-61
2022/04/29 02:58:25;;;;;;;9.95;6.20;;;5.50;99.90;;;;;;5093311;28;20075;-57
2022/04/29 03:00:51;;;;;;;10.50;5.50;;;5.50;99.90;;;;;;5092583;28;20071;-59
2022/04/29 03:03:17;;;;;;;10.48;6.00;;;5.50;99.90;;;;;;5093666;28;20147;-60
2022/04/29 03:05:44;;;;;;;11.48;6.15;;;5.50;99.90;;;;;;5094743;28;20513;-58
2022/04/29 03:08:10;;;;;;;10.00;5.68;;;5.50;99.90;;;;;;5094399;28;20118;-61
2022/04/29 03:10:36;;;;;;;9.15;5.80;;;5.40;99.90;;;;;;5094385;28;20123;-61
2022/04/29 03:13:02;;;;;;;14.38;6.35;;;5.40;99.90;;;;;;5094222;28;20039;-61
2022/04/29 03:15:28;;;;;;;13.15;6.40;;;5.40;99.90;;;;;;5074608;28;20053;-61
2022/04/29 03:20:41;;;;;;;9.75;6.25;;;5.30;99.90;;;;;;5091299;28;20051;-61
2022/04/29 03:23:08;;;;;;;8.68;5.43;;;5.30;99.90;;;;;;5092399;28;20039;-61
2022/04/29 03:25:35;;;;;;;10.50;6.18;;;5.30;99.90;;;;;;5093570;28;20115;-60
2022/04/29 03:28:01;;;;;;;14.43;6.18;;;5.30;99.90;;;;;;5094057;28;20044;-60
2022/04/29 03:30:27;;;;;;;10.10;6.03;;;5.30;99.90;;;;;;5095510;28;20044;-61
2022/04/29 03:32:55;;;;;;;11.13;6.22;;;5.30;99.90;;;;;;5096576;28;20059;-61
2022/04/29 03:35:22;;;;;;;8.82;6.30;;;5.30;99.90;;;;;;5097751;28;20044;-61
2022/04/29 03:37:51;;;;;;;12.57;6.32;;;5.40;99.90;;;;;;5094796;28;20044;-61
2022/04/29 03:40:21;;;;;;;9.73;6.13;;;5.40;99.90;;;;;;5094777;28;20047;-61
2022/04/29 03:42:48;;;;;;;12.63;6.75;;;5.40;99.90;;;;;;5097109;28;20542;-61
2022/04/29 03:45:14;;;;;;;13.13;6.55;;;5.40;99.90;;;;;;5099087;28;20059;-61
2022/04/29 03:47:41;;;;;;;13.68;6.82;;;5.40;99.90;;;;;;5096412;28;20856;-61
2022/04/29 03:50:09;;;;;;;9.80;6.35;;;5.40;99.90;;;;;;5078466;28;20048;-61
2022/04/29 03:52:48;;;;;;;8.35;6.50;;;5.40;99.90;;;;;;5097436;28;20401;-61
2022/04/29 03:55:15;;;;;;;11.00;6.72;;;5.50;99.90;;;;;;5097522;28;20051;-60
2022/04/29 03:57:41;;;;;;;10.48;6.57;;;5.50;99.90;;;;;;5086169;28;20039;-61
2022/04/29 04:00:08;;;;;;;10.18;6.65;;;5.50;99.90;;;;;;5096518;28;20055;-59
2022/04/29 04:02:34;;;;;;;13.95;6.50;;;5.50;99.90;;;;;;5095179;28;20109;-61
2022/04/29 04:05:01;;;;;;;11.55;7.28;;;5.50;99.90;;;;;;5096612;28;20112;-60
2022/04/29 04:07:27;;;;;;;9.80;6.75;;;5.50;99.90;;;;;;5095596;28;20569;-61
2022/04/29 04:09:52;;;;;;;8.38;7.03;;;5.50;99.90;;;;;;5084937;28;20083;-61
2022/04/29 04:12:18;;;;;;;10.55;7.10;;;5.60;99.90;;;;;;5077529;28;20039;-61
2022/04/29 04:14:45;;;;;;;11.63;7.50;;;5.60;99.90;;;;;;5075055;28;20063;-61
2022/04/29 04:17:11;;;;;;;9.70;6.88;;;5.60;99.90;;;;;;5095451;27;20058;-59
2022/04/29 04:19:37;;;;;;;13.75;7.47;;;5.60;99.90;;;;;;5093189;28;20454;-61
2022/04/29 04:22:03;;;;;;;12.82;7.25;;;5.70;99.90;;;;;;5077662;28;20457;-59
2022/04/29 04:24:29;;;;;;;11.35;7.88;;;5.70;99.90;;;;;;5096885;28;20167;-61
2022/04/29 04:26:56;;;;;;;8.90;7.45;;;5.70;99.90;;;;;;5095671;28;20048;-61
2022/04/29 04:29:22;;;;;;;11.80;7.90;;;5.80;99.90;;;;;;5096971;28;20060;-61
2022/04/29 04:31:48;;;;;;;11.82;7.82;;;5.80;99.90;;;;;;5096787;28;20043;-61
2022/04/29 04:36:59;;;;;;;10.80;7.72;;;5.90;99.90;;;;;;5079440;28;20047;-61
2022/04/29 04:39:25;;;;;;;12.85;7.70;;;5.90;99.90;;;;;;5094208;28;20063;-61
2022/04/29 04:41:51;;;;;;;11.50;7.60;;;6.00;99.90;;;;;;5084574;28;20177;-61
2022/04/29 04:44:17;;;;;;;12.73;8.38;;;6.00;99.90;;;;;;5095460;28;20111;-60
2022/04/29 04:46:43;;;;;;;9.82;7.25;;;6.10;99.90;;;;;;5095085;28;20059;-60
2022/04/29 04:49:11;;;;;;;13.25;7.15;;;6.10;99.90;;;;;;5094678;28;20089;-60
2022/04/29 04:51:37;;;;;;;11.70;7.35;;;6.10;99.90;;;;;;5091415;28;20150;-60
2022/04/29 04:54:04;;;;;;;10.13;7.85;;;6.20;99.90;;;;;;5076135;28;20035;-60
2022/04/29 04:56:30;;;;;;;10.00;7.47;;;6.20;99.90;;;;;;5094540;28;20044;-61
2022/04/29 04:58:56;;;;;;;9.23;7.03;;;6.30;99.90;;;;;;5094096;28;20532;-61
2022/04/29 05:01:23;;;;;;;14.20;7.90;;;6.30;99.90;;;;;;5095696;28;20048;-60
2022/04/29 05:03:49;;;;;;;12.07;7.75;;;6.40;99.90;;;;;;5095425;28;20130;-59
2022/04/29 05:06:15;;;;;;;12.45;7.78;;;6.40;99.90;;;;;;5079633;28;20075;-61
2022/04/29 05:08:41;;;;;;;11.68;7.55;;;6.50;99.90;;;;;;5094913;28;20047;-61
2022/04/29 05:11:07;;;;;;;12.43;8.10;;;6.50;99.90;;;;;;5094853;28;20131;-60
2022/04/29 05:13:33;;;;;;;12.07;7.53;;;6.60;99.90;;;;;;5084613;28;20504;-60
2022/04/29 05:15:59;;;;;;;12.55;7.20;;;6.70;99.90;;;;;;5093978;28;20031;-61
2022/04/29 05:18:25;;;;;;;11.30;7.03;;;6.70;99.90;;;;;;5095623;28;20070;-61
2022/04/29 05:20:51;;;;;;;11.60;7.20;;;6.80;99.90;;;;;;5094439;28;20073;-58
2022/04/29 05:23:17;;;;;;;9.93;6.75;;;6.80;99.90;;;;;;5094672;28;20110;-60
2022/04/29 05:25:43;;;;;;;12.15;7.05;;;6.90;99.90;;;;;;5094226;28;20240;-61
2022/04/29 05:28:09;;;;;;;13.23;6.82;;;7.00;99.90;;;;;;5093373;28;20060;-61
2022/04/29 05:30:36;;;;;;;9.02;6.25;;;7.00;99.90;;;;;;5094191;28;20048;-61
2022/04/29 05:33:03;;;;;;;9.25;5.70;;;7.10;99.90;;;;;;5094320;28;20548;-61
2022/04/29 05:35:29;;;;;;;12.52;6.40;;;7.10;99.90;;;;;;5094017;28;20055;-61
2022/04/29 05:37:55;;;;;;;13.55;6.53;;;7.20;99.90;;;;;;5077888;28;20055;-59
2022/04/29 05:43:07;;;;;;;12.18;5.78;;;7.30;99.90;;;;;;5095097;28;20047;-61
2022/04/29 05:45:33;;;;;;;9.57;5.72;;;7.40;99.90;;;;;;5094215;28;20509;-61
2022/04/29 05:48:00;;;;;;;9.02;5.78;;;7.40;99.90;;;;;;5076577;28;20054;-61
2022/04/29 05:50:26;;;;;;;9.88;6.10;;;7.50;99.90;;;;;;5079005;28;20032;-59
2022/04/29 05:52:52;;;;;;;11.05;5.75;;;7.50;99.90;;;;;;5094635;28;20044;-60
2022/04/29 05:55:17;;;;;;;11.70;5.90;;;7.50;99.90;;;;;;5094362;28;20348;-61
2022/04/29 05:57:43;;;;;;;11.18;5.35;;;7.60;99.90;;;;;;5095561;28;20550;-60
2022/04/29 06:00:10;;;;;;;9.60;5.00;;;7.60;99.90;;;;;;5094443;28;20401;-60
2022/04/29 06:02:39;;;;;;;9.75;4.75;;;7.70;99.90;;;;;;5094520;28;20138;-58
2022/04/29 06:05:05;;;;;;;10.30;5.00;;;7.70;99.90;;;;;;5094856;28;20047;-61
2022/04/29 06:07:31;;;;;;;10.35;4.97;;;7.80;99.90;;;;;;5093808;28;20378;-61
2022/04/29 06:09:57;;;;;;;9.18;5.45;;;7.80;99.90;;;;;;5094947;28;20035;-61
2022/04/29 06:12:23;;;;;;;9.00;5.18;;;7.80;99.90;;;;;;5094415;28;20431;-60
2022/04/29 06:14:49;;;;;;;11.60;5.25;;;7.90;99.90;;;;;;5094633;28;20039;-61
2022/04/29 06:17:15;;;;;;;8.10;5.40;;;8.00;99.90;;;;;;5093418;28;20411;-61
2022/04/29 06:19:41;;;;;;;10.05;5.47;;;8.00;99.90;;;;;;5094104;28;20044;-60
2022/04/29 06:22:07;;;;;;;10.20;5.20;;;8.10;99.90;;;;;;5094582;28;20044;-60
2022/04/29 06:24:33;;;;;;;9.35;5.22;;;8.10;99.90;;;;;;5077464;28;20040;-61
2022/04/29 06:27:01;;;;;;;8.45;5.60;;;8.20;99.90;;;;;;5095072;28;20036;-60
2022/04/29 06:29:27;;;;;;;11.68;6.00;;;8.20;99.90;;;;;;5052997;28;20549;-61
2022/04/29 06:31:54;;;;;;;6.80;5.88;;;8.20;99.90;;;;;;5051836;28;20041;-60
2022/04/29 06:34:19;;;;;;;11.75;5.97;;;8.30;99.90;;;;;;5053624;28;20502;-60
2022/04/29 06:36:48;;;;;;;10.73;5.60;;;8.30;99.90;;;;;;5052582;28;20141;-61
2022/04/29 06:39:14;;;;;;;9.90;4.97;;;8.40;99.90;;;;;;5052281;28;20053;-61
2022/04/29 06:41:41;;;;;;;8.95;4.82;;;8.40;99.90;;;;;;5050102;28;20071;-60
2022/04/29 06:44:08;;;;;;;7.70;4.93;;;8.50;99.90;;;;;;5051032;28;20055;-61
2022/04/29 06:46:34;;;;;;;10.00;5.15;;;8.60;99.90;;;;;;5051852;28;20053;-60
2022/04/29 06:49:00;;;;;;;9.20;5.10;;;8.60;99.90;;;;;;5049070;28;20091;-60
2022/04/29 06:51:26;;;;;;;7.60;4.65;;;8.70;99.90;;;;;;5051761;28;20517;-60
2022/04/29 06:53:52;;;;;;;9.82;4.68;;;8.70;99.90;;;;;;5051188;28;20370;-60
2022/04/29 06:56:18;;;;;;;5.20;4.38;;;8.80;99.90;;;;;;5048918;28;20071;-60
2022/04/29 06:58:44;;;;;;;9.13;4.68;;;8.90;99.90;;;;;;5051321;28;20114;-60
2022/04/29 07:01:11;;;;;;;6.05;4.32;;;8.90;99.90;;;;;;5059309;28;20514;-61
2022/04/29 07:03:38;;;;;;;7.38;4.50;;;9.00;99.90;;;;;;5057525;28;20033;-61
2022/04/29 07:06:06;;;;;;;7.70;4.80;;;9.10;99.90;;;;;;5058377;28;20576;-60
2022/04/29 07:08:32;;;;;;;11.85;4.15;;;9.10;99.90;;;;;;5057639;28;20048;-60
2022/04/29 07:10:58;;;;;;;9.90;4.15;;;9.20;99.90;;;;;;5055388;28;20403;-61
2022/04/29 07:13:24;;;;;;;13.98;3.92;;;9.20;99.90;;;;;;5054604;28;20045;-60
2022/04/29 07:15:50;;;;;;;6.85;2.42;;;9.20;99.90;;;;;;5057346;28;20055;-61
2022/04/29 07:18:16;;;;;;;7.40;2.40;;;9.30;99.90;;;;;;5058528;28;20048;-60
2022/04/29 07:20:43;;;;;;;6.32;2.58;;;9.20;99.90;;;;;;5056745;28;20053;-60
2022/04/29 07:23:09;;;;;;;5.40;2.50;;;9.20;99.90;;;;;;5055756;28;20076;-60
2022/04/29 07:25:35;;;;;;;6.90;3.08;;;9.20;99.90;;;;;;5045913;28;20044;-61
2022/04/29 07:28:01;;;;;;;6.40;2.58;;;9.30;99.90;;;;;;5066284;28;20051;-61
2022/04/29 07:30:27;;;;;;;6.47;2.47;;;9.30;99.90;;;;;;5096182;28;20040;-60
2022/04/29 07:32:54;;;;;;;9.10;2.17;;;9.30;99.90;;;;;;5095790;28;20047;-61
2022/04/29 07:43:36;;;;;;;5.00;2.65;;;9.40;99.90;;;;;;5097050;28;20413;-59
2022/04/29 07:46:03;;;;;;;7.03;2.17;;;9.50;99.90;;;;;;5094723;28;20058;-61
2022/04/29 07:48:30;;;;;;;7.03;2.45;;;9.50;99.90;;;;;;5096742;28;20081;-61
2022/04/29 07:50:56;;;;;;;6.68;2.55;;;9.50;99.90;;;;;;5095550;28;20114;-61
2022/04/29 07:53:22;;;;;;;6.13;2.80;;;9.60;99.90;;;;;;5079093;28;20082;-60
2022/04/29 07:55:48;;;;;;;6.30;2.53;;;9.70;99.90;;;;;;5094963;28;20048;-59
2022/04/29 07:58:14;;;;;;;6.60;2.83;;;9.70;99.90;;;;;;5080290;28;20058;-60
2022/04/29 08:00:41;;;;;;;5.80;2.83;;;9.80;99.90;;;;;;5092321;28;20035;-61
2022/04/29 08:03:06;;;;;;;19.10;3.63;;;9.80;99.90;;;;;;5076234;28;20044;-61
2022/04/29 08:05:33;;;;;;;14.13;3.35;;;9.80;99.90;;;;;;5094551;28;20101;-61
2022/04/29 08:07:59;;;;;;;6.45;2.50;;;9.80;99.90;;;;;;5094031;28;20035;-61
2022/04/29 08:10:31;;;;;;;5.75;2.28;;;9.80;99.90;;;;;;5076804;28;20035;-61
2022/04/29 08:12:58;;;;;;;4.85;2.40;;;9.80;99.90;;;;;;5084959;28;20050;-61
2022/04/29 08:15:27;;;;;;;8.63;3.03;;;9.80;99.90;;;;;;5095402;28;20036;-57
2022/04/29 08:17:54;;;;;;;7.28;2.70;;;9.80;99.90;;;;;;5094141;28;20044;-59
2022/04/29 08:20:21;;;;;;;7.25;2.80;;;9.80;99.90;;;;;;5095649;28;20050;-61
2022/04/29 08:22:47;;;;;;;4.70;2.63;;;9.80;99.90;;;;;;5095325;28;20105;-61
2022/04/29 08:25:17;;;;;;;5.28;2.95;;;9.90;99.90;;;;;;5094198;28;20071;-61
2022/04/29 08:27:43;;;;;;;4.28;2.95;;;10.00;99.90;;;;;;5094419;28;20146;-61
2022/04/29 08:30:09;;;;;;;13.05;3.17;;;10.00;99.90;;;;;;5097621;28;20474;-61
2022/04/29 08:32:40;;;;;;;8.52;3.15;;;10.10;99.90;;;;;;5094567;28;20417;-61
2022/04/29 08:35:07;;;;;;;7.35;3.10;;;10.20;99.90;;;;;;5077173;28;20048;-61
2022/04/29 08:37:33;;;;;;;7.03;3.38;;;10.20;99.90;;;;;;5094424;28;20048;-59
2022/04/29 08:40:00;;;;;;;5.82;3.03;;;10.20;99.90;;;;;;5095309;28;20074;-60
2022/04/29 08:42:28;;;;;;;9.82;3.42;;;10.30;99.90;;;;;;5077043;28;20043;-58
2022/04/29 08:44:54;;;;;;;8.80;3.20;;;10.40;99.90;;;;;;5096638;28;20047;-61
2022/04/29 08:47:20;;;;;;;6.93;2.80;;;10.50;99.90;;;;;;5096348;28;20538;-60
2022/04/29 08:49:47;;;;;;;8.77;3.10;;;10.60;99.90;;;;;;5094799;28;20040;-60
2022/04/29 08:52:14;;;;;;;12.50;3.03;;;10.70;99.90;;;;;;5068381;28;20048;-59
2022/04/29 09:00:23;;;;;;;9.20;3.20;;;11.00;99.70;;;;;;5096820;28;20878;-60
2022/04/29 09:02:49;;;;;;;7.82;3.13;;;11.00;99.60;;;;;;5079246;28;20078;-60
2022/04/29 09:05:15;;;;;;;9.18;2.75;;;11.00;99.10;;;;;;5095297;28;20043;-60
2022/04/29 09:08:02;;;;;;;4.05;2.67;;;11.00;98.80;;;;;;5084855;28;20059;-61
2022/04/29 09:10:34;;;;;;;3.78;2.67;;;11.00;98.80;;;;;;5076926;28;20579;-60
2022/04/29 09:13:22;;;;;;;6.63;2.87;;;11.10;98.50;;;;;;5094935;28;20086;-60
2022/04/29 09:15:57;;;;;;;8.75;3.35;;;11.10;98.60;;;;;;5093681;28;20051;-60
2022/04/29 09:18:35;;;;;;;7.07;3.03;;;11.10;98.20;;;;;;5094769;28;20047;-60
2022/04/29 09:21:05;;;;;;;5.88;3.17;;;11.10;98.60;;;;;;5095899;28;20077;-61
2022/04/29 09:23:31;;;;;;;7.13;3.35;;;11.10;98.20;;;;;;5094881;28;20080;-61
2022/04/29 09:26:01;;;;;;;10.57;3.53;;;11.00;98.40;;;;;;5095368;28;20463;-60
2022/04/29 09:28:27;;;;;;;9.15;3.90;;;11.00;98.60;;;;;;5094424;28;20052;-61
2022/04/29 09:30:57;;;;;;;8.05;4.00;;;11.10;98.60;;;;;;5078803;28;20047;-60
2022/04/29 09:33:25;;;;;;;8.13;3.97;;;11.10;98.50;;;;;;5076698;28;20048;-61
2022/04/29 09:35:52;;;;;;;9.95;3.80;;;11.10;98.50;;;;;;5079631;28;20044;-59
2022/04/29 09:41:05;;;;;;;6.47;3.30;;;11.10;98.20;;;;;;5078446;28;20051;-57
2022/04/29 09:43:43;;;;;;;6.25;3.28;;;11.00;98.10;;;;;;5095879;28;20051;-58
2022/04/29 09:46:14;;;;;;;6.35;3.25;;;11.00;98.10;;;;;;5072777;28;20055;-57
2022/04/29 09:49:09;;;;;;;10.88;3.40;;;11.10;98.20;;;;;;5096190;28;20165;-57
2022/04/29 09:51:45;;;;;;;9.10;4.20;;;11.10;98.40;;;;;;5059033;28;20047;-58
2022/04/29 09:54:16;;;;;;;9.02;3.80;;;11.10;98.10;;;;;;5092291;28;20124;-57
2022/04/29 09:57:00;;;;;;;8.63;4.10;;;11.10;98.00;;;;;;5075016;28;20136;-57
2022/04/29 09:59:29;;;;;;;8.35;4.22;;;11.00;98.00;;;;;;5084260;28;20113;-57
2022/04/29 10:01:55;;;;;;;6.80;3.85;;;11.00;97.90;;;;;;5094194;28;20090;-57
2022/04/29 10:04:22;;;;;;;8.48;3.90;;;10.90;97.80;;;;;;5093986;28;20566;-57
2022/04/29 10:06:49;;;;;;;6.32;2.88;;;10.80;97.70;;;;;;5075692;28;20126;-57
2022/04/29 10:09:18;;;;;;;8.75;3.70;;;10.70;97.60;;;;;;5092300;28;20043;-57
2022/04/29 10:11:44;;;;;;;5.68;3.53;;;10.70;97.50;;;;;;5092246;28;20043;-58
2022/04/29 10:14:15;;;;;;;10.40;3.90;;;10.60;97.70;;;;;;5093445;28;20052;-57
2022/04/29 10:21:15;;;;;;;10.48;3.40;;;10.60;97.60;;;;;;5091746;28;20051;-59
2022/04/29 10:22:19;;;;;;;9.05;3.80;;;10.50;97.80;;;;;;5091118;28;20055;-61
2022/04/29 10:24:46;;;;;;;8.13;3.50;;;10.50;97.90;;;;;;5093340;28;20119;-61
2022/04/29 10:27:12;;;;;;;6.05;3.60;;;10.50;97.80;;;;;;5091947;28;20127;-61
2022/04/29 10:29:39;;;;;;;9.68;4.00;;;10.50;97.90;;;;;;5075544;28;20116;-61
2022/04/29 10:32:07;;;;;;;10.43;4.15;;;10.50;97.80;;;;;;5095296;28;20063;-61
2022/04/29 10:34:35;;;;;;;10.10;4.40;;;10.50;97.70;;;;;;5092955;28;20035;-59
2022/04/29 10:37:01;;;;;;;10.98;4.13;;;10.50;97.50;;;;;;5094057;28;20142;-60
2022/04/29 10:39:27;;;;;;;7.32;3.88;;;10.50;97.70;;;;;;5094841;28;20097;-61
2022/04/29 10:42:20;;;;;;;8.68;4.07;;;10.50;97.90;;;;;;5065961;28;20059;-61
2022/04/29 10:45:02;;;;;;;9.82;3.60;;;10.50;98.00;;;;;;5091427;28;20052;-61
2022/04/29 10:47:41;;;;;;;7.90;3.83;;;10.50;97.70;;;;;;5093415;28;20039;-61
2022/04/29 10:50:31;;;;;;;6.30;3.47;;;10.60;97.70;;;;;;5092700;28;20040;-60
2022/04/29 10:53:05;;;;;;;8.30;4.22;;;10.60;97.40;;;;;;5093325;28;20087;-60
2022/04/29 10:55:32;;;;;;;11.70;4.13;;;10.60;96.80;;;;;;5075232;28;20444;-61
2022/04/29 10:58:03;;;;;;;7.28;4.05;;;10.60;96.80;;;;;;5092196;28;20044;-60
2022/04/29 11:00:30;;;;;;;8.05;4.32;;;10.60;96.60;;;;;;5075320;28;20056;-60
2022/04/29 11:03:38;;;;;;;7.72;3.00;;;10.60;96.50;;;;;;5094982;28;20116;-60
2022/04/29 11:06:15;;;;;;;5.90;2.63;;;10.70;96.20;;;;;;5091653;28;20070;-60
2022/04/29 11:08:42;;;;;;;4.95;3.40;;;10.80;95.60;;;;;;5091145;28;20048;-60
2022/04/29 11:11:09;;;;;;;4.43;3.80;;;10.80;95.40;;;;;;5091931;28;20050;-59
2022/04/29 11:13:42;;;;;;;7.35;4.20;;;10.90;95.20;;;;;;5091045;28;20039;-60
2022/04/29 11:16:14;;;;;;;6.32;3.92;;;11.10;95.20;;;;;;5075489;28;20375;-60
2022/04/29 11:18:43;;;;;;;3.95;3.17;;;11.10;95.00;;;;;;5065469;28;20054;-60
2022/04/29 11:26:50;;;;;;;7.30;3.28;;;11.30;94.50;;;;;;5089609;28;20079;-60
2022/04/29 11:29:17;;;;;;;6.57;3.42;;;11.30;94.20;;;;;;5090887;28;20048;-61
2022/04/29 11:31:44;;;;;;;8.07;3.08;;;11.30;94.40;;;;;;5092289;28;20044;-60
2022/04/29 11:34:13;;;;;;;7.10;3.28;;;11.30;94.40;;;;;;5091345;28;20036;-60
2022/04/29 11:36:41;;;;;;;7.97;3.35;;;11.20;94.50;;;;;;5093897;28;20044;-61
2022/04/29 11:39:18;;;;;;;7.68;3.20;;;11.20;94.70;;;;;;5093151;28;20567;-61
2022/04/29 11:41:54;;;;;;;4.75;2.92;;;11.30;94.80;;;;;;5091417;28;20066;-61
2022/04/29 11:44:38;;;;;;;3.10;2.60;;;11.40;94.50;;;;;;5074003;28;20044;-61
2022/04/29 11:47:05;;;;;;;4.20;2.78;;;11.50;94.20;;;;;;5077402;28;20051;-61
2022/04/29 11:49:33;;;;;;;5.13;3.47;;;11.60;93.80;;;;;;5096141;28;20713;-61
2022/04/29 11:52:31;;;;;;;4.90;3.38;;;11.60;93.80;;;;;;5097328;28;20108;-61
2022/04/29 11:55:12;;;;;;;3.88;3.08;;;11.60;93.70;;;;;;5097166;28;20508;-61
2022/04/29 11:57:46;;;;;;;6.07;3.10;;;11.60;93.50;;;;;;5096529;28;20048;-61
2022/04/29 12:00:34;;;;;;;5.40;3.00;;;11.70;93.40;;;;;;5097088;28;20073;-61
2022/04/29 12:03:03;;;;;;;5.40;2.83;;;11.70;93.20;;;;;;5094424;28;20508;-61
2022/04/29 12:05:30;;;;;;;6.07;3.20;;;11.60;93.10;;;;;;5078762;28;20054;-60
2022/04/29 12:08:01;;;;;;;6.15;3.25;;;11.70;93.20;;;;;;5093861;28;20044;-61
2022/04/29 12:10:29;;;;;;;5.13;3.42;;;11.70;93.10;;;;;;5077494;28;20075;-61
2022/04/29 12:13:00;;;;;;;5.57;3.28;;;11.70;93.10;;;;;;5095376;28;20042;-61
2022/04/29 12:15:30;;;;;;;7.00;3.05;;;11.70;93.30;;;;;;5080851;28;20048;-61
2022/04/29 12:18:02;;;;;;;8.70;3.50;;;11.70;92.90;;;;;;5097503;28;20486;-59
2022/04/29 12:20:28;;;;;;;6.40;3.10;;;11.60;93.10;;;;;;5096992;28;20206;-60
2022/04/29 12:23:06;;;;;;;7.00;3.22;;;11.50;93.20;;;;;;5095723;28;20075;-60
2022/04/29 12:25:42;;;;;;;4.97;3.13;;;11.50;93.20;;;;;;5095241;28;20051;-60
2022/04/29 12:28:43;;;;;;;5.13;2.88;;;11.40;92.70;;;;;;5093273;28;20070;-57
2022/04/29 12:36:49;;;;;;;5.07;2.72;;;11.40;93.30;;;;;;5095235;28;20513;-58
2022/04/29 12:39:21;;;;;;;5.97;2.60;;;11.40;92.90;;;;;;5095494;28;20047;-58
2022/04/29 12:42:10;;;;;;;5.40;2.85;;;11.40;92.60;;;;;;5096826;28;20476;-57
2022/04/29 12:45:05;;;;;;;9.13;3.22;;;11.40;92.70;;;;;;5095547;28;20085;-58
2022/04/29 12:47:39;;;;;;;6.63;3.08;;;11.40;92.90;;;;;;5085736;28;20040;-59
2022/04/29 12:50:24;;;;;;;4.95;2.95;;;11.40;93.30;;;;;;5095911;28;20598;-55
2022/04/29 12:53:02;;;;;;;3.67;2.90;;;11.30;93.20;;;;;;5079387;28;20051;-57
2022/04/29 12:55:47;;;;;;;5.55;2.92;;;11.40;93.50;;;;;;5097221;28;20044;-58
2022/04/29 12:58:21;;;;;;;5.38;2.60;;;11.30;93.50;;;;;;5096412;28;20565;-57
2022/04/29 13:00:53;;;;;;;4.35;2.70;;;11.30;93.00;;;;;;5091515;28;20047;-59
2022/04/29 13:03:23;;;;;;;4.18;2.70;;;11.30;93.20;;;;;;5092770;28;20055;-58
2022/04/29 13:05:50;;;;;;;4.72;2.70;;;11.20;93.10;;;;;;5091545;28;20229;-58
2022/04/29 13:08:16;;;;;;;6.72;2.80;;;11.30;93.40;;;;;;5093740;28;20059;-58
2022/04/29 13:10:48;;;;;;;4.55;2.80;;;11.40;93.50;;;;;;5093791;28;20044;-57
2022/04/29 13:13:15;;;;;;;7.40;3.40;;;11.50;93.50;;;;;;5093795;28;20510;-58
2022/04/29 13:15:43;;;;;;;4.82;3.20;;;11.60;93.30;;;;;;5093515;28;20772;-58
2022/04/29 13:18:13;;;;;;;4.63;2.80;;;11.70;93.10;;;;;;5085582;28;20047;-57
2022/04/29 13:20:39;;;;;;;7.57;3.22;;;11.70;93.00;;;;;;5075520;28;20398;-57
2022/04/29 13:23:05;;;;;;;5.40;3.00;;;11.70;92.90;;;;;;5094382;28;20048;-58
2022/04/29 13:25:35;;;;;;;7.60;3.30;;;11.70;93.10;;;;;;5080179;28;20040;-57
2022/04/29 13:28:02;;;;;;;7.85;2.65;;;11.70;93.10;;;;;;5093205;28;20048;-57
2022/04/29 13:30:28;;;;;;;5.82;2.88;;;11.70;93.10;;;;;;5075161;28;20372;-58
2022/04/29 13:32:54;;;;;;;8.60;3.78;;;11.70;93.20;;;;;;5094948;28;20044;-58
2022/04/29 13:35:20;;;;;;;8.68;3.50;;;11.70;93.30;;;;;;5095816;28;20105;-58